LELC/MJV METAR and TAF weather

Enter ICAO airport designator
Station Type Date Time Source
LELC METAR 2019/06/27 08:00 UTC NOAA

LELC 270800Z 06015KT 030V100 CAVOK 27/20 Q1017 NOSIG


Station Type Date Time Source
LELC Decoded METAR 2019/06/27 08:00 UTC NOAA

Murcia / San Javier, Spain (LELC) 37-47N 000-48W 3M
Jun 27, 2019 - 04:00 AM EDT / 2019.06.27 0800 UTC
Wind: from the ENE (060 degrees) at 17 MPH (15 KT) (direction variable):0
Visibility: greater than 7 mile(s):0
Temperature: 80 F (27 C)
Dew Point: 68 F (20 C)
Relative Humidity: 65%
Pressure (altimeter): 30.03 in. Hg (1017 hPa)
ob: LELC 270800Z 06015KT 030V100 CAVOK 27/20 Q1017 NOSIG
cycle: 8

Station Type Date Time Source
LELC TAF 2019/06/27 06:27 UTC NOAA

TAF LELC 270500Z 2706/2806 06015KT 9999 FEW015 TX30/2713Z TN21/2706Z
BECMG 2720/2722 03004KT

Example: see airport list